Aylsham, United Kingdom
Current Conditions -  °F | °C
As of 9:50 PM on Thursday 27 Nov 2014 (Local Time) from EGSH Reporting Station
Haze Haze  
Wind Chill: 52°   Ceiling: 1600
Heat Index: 52°   Visibility: 2.8mi
Dew Point: 50°   Wind: 5mph
Humidity: 94%   Direction: 110°ESE
Pressure: 29.65"   Gusts: NA
Location:  52.8°N, 1.25°E
Report Text: EGSH 272150Z AUTO 11004KT 070V150 4600 BR SCT011/// OVC016/// 11/10 Q1004
Loading
Personal Weather Stations






























Interactive Weather Map New forecast layout! Learn more

10-Day Weather Forecast

Advertisements
Track Severe Weather on mobile